sensor_id;sensor_type;location;lat;lon;timestamp;pressure;altitude;pressure_sealevel;temperature;humidity
18569;BME280;14780;48.316;-1.050;2023-07-31T00:02:12;99149.97;;;24.05;46.76
18569;BME280;14780;48.316;-1.050;2023-07-31T00:04:56;99147.25;;;24.05;46.68
18569;BME280;14780;48.316;-1.050;2023-07-31T00:07:41;99141.78;;;24.05;46.66
18569;BME280;14780;48.316;-1.050;2023-07-31T00:10:26;99137.97;;;24.01;46.78
18569;BME280;14780;48.316;-1.050;2023-07-31T00:13:11;99138.78;;;24.07;46.55
18569;BME280;14780;48.316;-1.050;2023-07-31T00:15:55;99153.81;;;23.99;46.67
18569;BME280;14780;48.316;-1.050;2023-07-31T00:18:40;99150.78;;;24.01;46.64
18569;BME280;14780;48.316;-1.050;2023-07-31T00:21:24;99153.53;;;23.96;46.81
18569;BME280;14780;48.316;-1.050;2023-07-31T00:24:09;99146.69;;;23.98;46.64
18569;BME280;14780;48.316;-1.050;2023-07-31T00:26:54;99137.69;;;23.98;46.80
18569;BME280;14780;48.316;-1.050;2023-07-31T00:29:39;99124.28;;;23.96;46.83
18569;BME280;14780;48.316;-1.050;2023-07-31T00:32:24;99114.19;;;23.97;46.90
18569;BME280;14780;48.316;-1.050;2023-07-31T00:35:08;99129.19;;;23.94;46.89
18569;BME280;14780;48.316;-1.050;2023-07-31T00:37:53;99133.56;;;23.95;46.82
18569;BME280;14780;48.316;-1.050;2023-07-31T00:40:38;99128.38;;;23.94;46.82
18569;BME280;14780;48.316;-1.050;2023-07-31T00:43:22;99129.75;;;23.96;46.77
18569;BME280;14780;48.316;-1.050;2023-07-31T00:46:08;99124.84;;;23.93;47.02
18569;BME280;14780;48.316;-1.050;2023-07-31T00:48:52;99117.16;;;23.90;47.08
18569;BME280;14780;48.316;-1.050;2023-07-31T00:51:37;99118.81;;;23.96;46.74
18569;BME280;14780;48.316;-1.050;2023-07-31T00:54:21;99125.09;;;23.92;46.99
18569;BME280;14780;48.316;-1.050;2023-07-31T00:57:06;99112.00;;;23.89;47.24
18569;BME280;14780;48.316;-1.050;2023-07-31T00:59:52;99117.72;;;23.92;47.03
18569;BME280;14780;48.316;-1.050;2023-07-31T01:02:37;99113.06;;;23.88;47.04
18569;BME280;14780;48.316;-1.050;2023-07-31T01:05:33;99108.16;;;23.90;47.05
18569;BME280;14780;48.316;-1.050;2023-07-31T01:08:33;99115.25;;;23.91;47.01
18569;BME280;14780;48.316;-1.050;2023-07-31T01:11:29;99107.88;;;23.86;47.16
18569;BME280;14780;48.316;-1.050;2023-07-31T01:14:14;99107.59;;;23.88;47.10
18569;BME280;14780;48.316;-1.050;2023-07-31T01:17:00;99108.13;;;23.85;47.38
18569;BME280;14780;48.316;-1.050;2023-07-31T01:19:45;99105.94;;;23.87;47.10
18569;BME280;14780;48.316;-1.050;2023-07-31T01:28:20;99084.34;;;23.80;47.42
18569;BME280;14780;48.316;-1.050;2023-07-31T01:31:10;99075.31;;;23.85;47.25
18569;BME280;14780;48.316;-1.050;2023-07-31T01:34:00;99086.25;;;23.85;47.15
18569;BME280;14780;48.316;-1.050;2023-07-31T01:36:45;99070.13;;;23.83;47.26
18569;BME280;14780;48.316;-1.050;2023-07-31T01:39:30;99076.16;;;23.85;47.24
18569;BME280;14780;48.316;-1.050;2023-07-31T01:42:14;99067.41;;;23.78;47.15
18569;BME280;14780;48.316;-1.050;2023-07-31T01:44:59;99070.41;;;23.82;47.30
18569;BME280;14780;48.316;-1.050;2023-07-31T01:47:44;99065.22;;;23.80;47.16
18569;BME280;14780;48.316;-1.050;2023-07-31T01:50:28;99053.19;;;23.81;47.11
18569;BME280;14780;48.316;-1.050;2023-07-31T01:53:13;99046.66;;;23.77;47.48
18569;BME280;14780;48.316;-1.050;2023-07-31T01:55:57;99036.78;;;23.76;47.57
18569;BME280;14780;48.316;-1.050;2023-07-31T01:58:42;99042.53;;;23.80;47.33
18569;BME280;14780;48.316;-1.050;2023-07-31T02:01:27;99039.53;;;23.76;47.45
18569;BME280;14780;48.316;-1.050;2023-07-31T02:04:11;99043.91;;;23.72;47.61
18569;BME280;14780;48.316;-1.050;2023-07-31T02:06:56;99044.47;;;23.79;47.44
18569;BME280;14780;48.316;-1.050;2023-07-31T02:09:40;99034.06;;;23.76;47.43
18569;BME280;14780;48.316;-1.050;2023-07-31T02:12:25;99026.69;;;23.72;47.55
18569;BME280;14780;48.316;-1.050;2023-07-31T02:15:11;99020.97;;;23.78;47.43
18569;BME280;14780;48.316;-1.050;2023-07-31T02:17:56;99017.13;;;23.74;47.63
18569;BME280;14780;48.316;-1.050;2023-07-31T02:20:41;99016.88;;;23.76;47.55
18569;BME280;14780;48.316;-1.050;2023-07-31T02:23:27;99015.50;;;23.73;47.53
18569;BME280;14780;48.316;-1.050;2023-07-31T02:26:11;99010.56;;;23.75;47.35
18569;BME280;14780;48.316;-1.050;2023-07-31T02:28:56;99002.38;;;23.70;47.52
18569;BME280;14780;48.316;-1.050;2023-07-31T02:31:41;98992.53;;;23.74;47.40
18569;BME280;14780;48.316;-1.050;2023-07-31T02:34:25;98988.72;;;23.70;47.54
18569;BME280;14780;48.316;-1.050;2023-07-31T02:37:10;98977.81;;;23.70;47.69
18569;BME280;14780;48.316;-1.050;2023-07-31T02:39:55;98975.34;;;23.74;47.49
18569;BME280;14780;48.316;-1.050;2023-07-31T02:42:40;98989.78;;;23.69;47.59
18569;BME280;14780;48.316;-1.050;2023-07-31T02:45:24;98987.09;;;23.64;47.68
18569;BME280;14780;48.316;-1.050;2023-07-31T02:48:09;98983.78;;;23.67;47.68
18569;BME280;14780;48.316;-1.050;2023-07-31T02:50:54;98976.44;;;23.68;47.66
18569;BME280;14780;48.316;-1.050;2023-07-31T02:53:38;98970.69;;;23.64;47.93
18569;BME280;14780;48.316;-1.050;2023-07-31T02:56:23;98970.69;;;23.64;47.74
18569;BME280;14780;48.316;-1.050;2023-07-31T02:59:07;98977.53;;;23.62;47.82
18569;BME280;14780;48.316;-1.050;2023-07-31T03:01:52;98978.06;;;23.69;47.67
18569;BME280;14780;48.316;-1.050;2023-07-31T03:04:37;98974.81;;;23.67;47.75
18569;BME280;14780;48.316;-1.050;2023-07-31T03:07:21;98970.13;;;23.62;47.69
18569;BME280;14780;48.316;-1.050;2023-07-31T03:10:06;98972.34;;;23.70;47.54
18569;BME280;14780;48.316;-1.050;2023-07-31T03:12:51;98976.69;;;23.66;47.79
18569;BME280;14780;48.316;-1.050;2023-07-31T03:15:36;98976.16;;;23.64;47.74
18569;BME280;14780;48.316;-1.050;2023-07-31T03:18:20;98976.16;;;23.64;47.82
18569;BME280;14780;48.316;-1.050;2023-07-31T03:21:05;98961.94;;;23.62;47.85
18569;BME280;14780;48.316;-1.050;2023-07-31T03:23:50;98956.47;;;23.62;47.85
18569;BME280;14780;48.316;-1.050;2023-07-31T03:26:34;98967.97;;;23.59;47.94
18569;BME280;14780;48.316;-1.050;2023-07-31T03:29:20;98956.78;;;23.61;47.85
18569;BME280;14780;48.316;-1.050;2023-07-31T03:32:05;98958.66;;;23.60;47.69
18569;BME280;14780;48.316;-1.050;2023-07-31T03:34:50;98960.03;;;23.58;47.94
18569;BME280;14780;48.316;-1.050;2023-07-31T03:37:35;98957.03;;;23.64;47.67
18569;BME280;14780;48.316;-1.050;2023-07-31T03:40:20;98944.75;;;23.62;47.74
18569;BME280;14780;48.316;-1.050;2023-07-31T03:43:05;98941.75;;;23.63;47.81
18569;BME280;14780;48.316;-1.050;2023-07-31T03:45:50;98944.47;;;23.58;47.90
18569;BME280;14780;48.316;-1.050;2023-07-31T03:48:34;98932.19;;;23.61;47.88
18569;BME280;14780;48.316;-1.050;2023-07-31T03:51:19;98942.28;;;23.55;48.04
18569;BME280;14780;48.316;-1.050;2023-07-31T03:54:03;98937.34;;;23.62;47.68
18569;BME280;14780;48.316;-1.050;2023-07-31T03:56:48;98932.44;;;23.59;47.83
18569;BME280;14780;48.316;-1.050;2023-07-31T03:59:33;98927.81;;;23.60;47.89
18569;BME280;14780;48.316;-1.050;2023-07-31T04:02:17;98922.63;;;23.58;47.98
18569;BME280;14780;48.316;-1.050;2023-07-31T04:05:03;98919.63;;;23.55;47.78
18569;BME280;14780;48.316;-1.050;2023-07-31T04:07:48;98921.00;;;23.57;47.86
18569;BME280;14780;48.316;-1.050;2023-07-31T04:10:33;98921.78;;;23.58;47.80
18569;BME280;14780;48.316;-1.050;2023-07-31T04:13:18;98924.56;;;23.53;48.02
18569;BME280;14780;48.316;-1.050;2023-07-31T04:16:02;98924.81;;;23.56;47.70
18569;BME280;14780;48.316;-1.050;2023-07-31T04:18:47;98921.78;;;23.58;47.99
18569;BME280;14780;48.316;-1.050;2023-07-31T04:21:32;98924.81;;;23.56;47.85
18569;BME280;14780;48.316;-1.050;2023-07-31T04:24:17;98925.34;;;23.53;48.09
18569;BME280;14780;48.316;-1.050;2023-07-31T04:27:08;98917.69;;;23.55;47.94
18569;BME280;14780;48.316;-1.050;2023-07-31T04:29:53;98908.97;;;23.53;48.08
18569;BME280;14780;48.316;-1.050;2023-07-31T04:32:37;98920.72;;;23.54;47.97
18569;BME280;14780;48.316;-1.050;2023-07-31T04:35:22;98923.72;;;23.52;48.16
18569;BME280;14780;48.316;-1.050;2023-07-31T04:38:06;98919.91;;;23.58;47.70
18569;BME280;14780;48.316;-1.050;2023-07-31T04:40:51;98915.25;;;23.54;48.03
18569;BME280;14780;48.316;-1.050;2023-07-31T04:43:36;98918.53;;;23.56;47.86
18569;BME280;14780;48.316;-1.050;2023-07-31T04:46:23;98923.72;;;23.52;47.97
18569;BME280;14780;48.316;-1.050;2023-07-31T04:49:08;98925.38;;;23.48;48.18
18569;BME280;14780;48.316;-1.050;2023-07-31T04:51:52;98923.97;;;23.56;47.78
18569;BME280;14780;48.316;-1.050;2023-07-31T04:54:37;98927.28;;;23.53;47.91
18569;BME280;14780;48.316;-1.050;2023-07-31T04:57:22;98925.88;;;23.55;47.97
18569;BME280;14780;48.316;-1.050;2023-07-31T05:00:07;98924.25;;;23.54;48.01
18569;BME280;14780;48.316;-1.050;2023-07-31T05:02:52;98914.44;;;23.53;47.91
18569;BME280;14780;48.316;-1.050;2023-07-31T05:05:36;98920.97;;;23.47;48.24
18569;BME280;14780;48.316;-1.050;2023-07-31T05:08:22;98907.31;;;23.47;48.06
18569;BME280;14780;48.316;-1.050;2023-07-31T05:11:06;98899.97;;;23.48;48.08
18569;BME280;14780;48.316;-1.050;2023-07-31T05:13:51;98902.13;;;23.51;47.91
18569;BME280;14780;48.316;-1.050;2023-07-31T05:16:35;98908.44;;;23.51;48.15
18569;BME280;14780;48.316;-1.050;2023-07-31T05:19:20;98903.78;;;23.47;48.21
18569;BME280;14780;48.316;-1.050;2023-07-31T05:22:05;98899.69;;;23.44;47.96
18569;BME280;14780;48.316;-1.050;2023-07-31T05:24:50;98900.50;;;23.55;47.95
18569;BME280;14780;48.316;-1.050;2023-07-31T05:27:35;98896.13;;;23.54;48.12
18569;BME280;14780;48.316;-1.050;2023-07-31T05:30:20;98902.44;;;23.49;48.17
18569;BME280;14780;48.316;-1.050;2023-07-31T05:33:06;98898.59;;;23.50;48.09
18569;BME280;14780;48.316;-1.050;2023-07-31T05:35:50;98898.59;;;23.50;48.17
18569;BME280;14780;48.316;-1.050;2023-07-31T05:38:35;98891.50;;;23.49;48.00
18569;BME280;14780;48.316;-1.050;2023-07-31T05:41:19;98895.88;;;23.50;48.24
18569;BME280;14780;48.316;-1.050;2023-07-31T05:44:04;98888.78;;;23.49;48.26
18569;BME280;14780;48.316;-1.050;2023-07-31T05:46:49;98890.94;;;23.47;48.12
18569;BME280;14780;48.316;-1.050;2023-07-31T05:49:33;98894.25;;;23.49;48.14
18569;BME280;14780;48.316;-1.050;2023-07-31T05:52:19;98889.88;;;23.48;48.23
18569;BME280;14780;48.316;-1.050;2023-07-31T05:55:04;98888.22;;;23.47;48.48
18569;BME280;14780;48.316;-1.050;2023-07-31T05:57:49;98888.78;;;23.49;48.46
18569;BME280;14780;48.316;-1.050;2023-07-31T06:00:33;98879.47;;;23.50;48.40
18569;BME280;14780;48.316;-1.050;2023-07-31T06:03:18;98883.31;;;23.49;48.53
18569;BME280;14780;48.316;-1.050;2023-07-31T06:06:03;98875.38;;;23.48;48.24
18569;BME280;14780;48.316;-1.050;2023-07-31T06:08:47;98885.22;;;23.49;48.32
18569;BME280;14780;48.316;-1.050;2023-07-31T06:11:32;98891.50;;;23.44;48.31
18569;BME280;14780;48.316;-1.050;2023-07-31T06:14:16;98884.41;;;23.48;48.17
18569;BME280;14780;48.316;-1.050;2023-07-31T06:17:01;98885.47;;;23.52;48.11
18569;BME280;14780;48.316;-1.050;2023-07-31T06:19:45;98884.94;;;23.45;48.43
18569;BME280;14780;48.316;-1.050;2023-07-31T06:22:30;98879.75;;;23.49;48.29
18569;BME280;14780;48.316;-1.050;2023-07-31T06:25:15;98881.13;;;23.42;48.54
18569;BME280;14780;48.316;-1.050;2023-07-31T06:28:00;98876.50;;;23.47;48.31
18569;BME280;14780;48.316;-1.050;2023-07-31T06:30:45;98876.50;;;23.47;48.31
18569;BME280;14780;48.316;-1.050;2023-07-31T06:33:29;98881.13;;;23.46;48.54
18569;BME280;14780;48.316;-1.050;2023-07-31T06:36:14;98881.69;;;23.43;48.45
18569;BME280;14780;48.316;-1.050;2023-07-31T06:38:59;98874.28;;;23.49;48.08
18569;BME280;14780;48.316;-1.050;2023-07-31T06:41:45;98865.84;;;23.50;48.40
18569;BME280;14780;48.316;-1.050;2023-07-31T06:44:29;98867.19;;;23.43;48.73
18569;BME280;14780;48.316;-1.050;2023-07-31T06:47:15;98871.81;;;23.47;48.77
18569;BME280;14780;48.316;-1.050;2023-07-31T06:49:59;98870.19;;;23.46;48.72
18569;BME280;14780;48.316;-1.050;2023-07-31T06:52:44;98864.72;;;23.46;48.52
18569;BME280;14780;48.316;-1.050;2023-07-31T06:55:29;98855.44;;;23.47;48.41
18569;BME280;14780;48.316;-1.050;2023-07-31T06:58:14;98853.53;;;23.48;48.49
18569;BME280;14780;48.316;-1.050;2023-07-31T07:00:59;98853.28;;;23.44;48.66
18569;BME280;14780;48.316;-1.050;2023-07-31T07:03:44;98859.00;;;23.48;48.60
18569;BME280;14780;48.316;-1.050;2023-07-31T07:06:28;98849.97;;;23.47;48.51
18569;BME280;14780;48.316;-1.050;2023-07-31T07:09:13;98847.28;;;23.42;48.81
18569;BME280;14780;48.316;-1.050;2023-07-31T07:11:57;98846.19;;;23.48;48.52
18569;BME280;14780;48.316;-1.050;2023-07-31T07:14:42;98853.28;;;23.49;48.65
18569;BME280;14780;48.316;-1.050;2023-07-31T07:17:27;98844.81;;;23.41;49.05
18569;BME280;14780;48.316;-1.050;2023-07-31T07:20:12;98832.00;;;23.42;49.03
18569;BME280;14780;48.316;-1.050;2023-07-31T07:22:57;98835.53;;;23.42;48.65
18569;BME280;14780;48.316;-1.050;2023-07-31T07:25:42;98835.00;;;23.45;48.74
18569;BME280;14780;48.316;-1.050;2023-07-31T07:28:27;98833.91;;;23.46;48.81
18569;BME280;14780;48.316;-1.050;2023-07-31T07:31:13;98830.91;;;23.42;48.97
18569;BME280;14780;48.316;-1.050;2023-07-31T07:33:57;98824.88;;;23.45;48.97
18569;BME280;14780;48.316;-1.050;2023-07-31T07:36:42;98828.13;;;23.47;48.82
18569;BME280;14780;48.316;-1.050;2023-07-31T07:39:27;98833.06;;;23.45;48.88
18569;BME280;14780;48.316;-1.050;2023-07-31T07:42:11;98827.34;;;23.42;48.83
18569;BME280;14780;48.316;-1.050;2023-07-31T07:44:56;98827.34;;;23.47;48.81
18569;BME280;14780;48.316;-1.050;2023-07-31T07:47:41;98826.50;;;23.46;48.92
18569;BME280;14780;48.316;-1.050;2023-07-31T07:50:26;98815.88;;;23.45;49.07
18569;BME280;14780;48.316;-1.050;2023-07-31T07:53:11;98813.94;;;23.45;49.12
18569;BME280;14780;48.316;-1.050;2023-07-31T07:55:55;98815.88;;;23.40;49.09
18569;BME280;14780;48.316;-1.050;2023-07-31T07:58:40;98817.22;;;23.47;48.83
18569;BME280;14780;48.316;-1.050;2023-07-31T08:01:24;98815.59;;;23.46;48.96
18569;BME280;14780;48.316;-1.050;2023-07-31T08:04:09;98816.41;;;23.47;48.76
18569;BME280;14780;48.316;-1.050;2023-07-31T08:06:54;98812.84;;;23.46;48.92
18569;BME280;14780;48.316;-1.050;2023-07-31T08:09:39;98808.50;;;23.45;49.00
18569;BME280;14780;48.316;-1.050;2023-07-31T08:12:24;98799.75;;;23.48;48.82
18569;BME280;14780;48.316;-1.050;2023-07-31T08:15:10;98796.50;;;23.42;49.19
18569;BME280;14780;48.316;-1.050;2023-07-31T08:17:54;98802.50;;;23.43;49.16
18569;BME280;14780;48.316;-1.050;2023-07-31T08:20:38;98792.66;;;23.42;49.30
18569;BME280;14780;48.316;-1.050;2023-07-31T08:23:23;98798.66;;;23.49;48.69
18569;BME280;14780;48.316;-1.050;2023-07-31T08:26:08;98789.91;;;23.47;49.10
18569;BME280;14780;48.316;-1.050;2023-07-31T08:28:52;98790.47;;;23.49;48.98
18569;BME280;14780;48.316;-1.050;2023-07-31T08:31:37;98787.75;;;23.44;49.32
18569;BME280;14780;48.316;-1.050;2023-07-31T08:34:21;98785.53;;;23.46;49.22
18569;BME280;14780;48.316;-1.050;2023-07-31T08:37:06;98766.44;;;23.46;49.22
18569;BME280;14780;48.316;-1.050;2023-07-31T08:39:51;98772.72;;;23.47;49.27
18569;BME280;14780;48.316;-1.050;2023-07-31T08:42:44;98783.38;;;23.48;49.26
18569;BME280;14780;48.316;-1.050;2023-07-31T08:45:29;98776.28;;;23.42;49.28
18569;BME280;14780;48.316;-1.050;2023-07-31T08:48:16;98785.84;;;23.45;49.32
18569;BME280;14780;48.316;-1.050;2023-07-31T08:51:01;98774.34;;;23.48;49.28
18569;BME280;14780;48.316;-1.050;2023-07-31T08:53:47;98772.47;;;23.48;49.14
18569;BME280;14780;48.316;-1.050;2023-07-31T08:56:32;98769.72;;;23.38;49.29
18569;BME280;14780;48.316;-1.050;2023-07-31T08:59:18;98767.53;;;23.45;49.26
18569;BME280;14780;48.316;-1.050;2023-07-31T09:02:07;98771.34;;;23.49;49.26
18569;BME280;14780;48.316;-1.050;2023-07-31T09:04:52;98761.81;;;23.47;49.40
18569;BME280;14780;48.316;-1.050;2023-07-31T09:07:37;98751.69;;;23.47;49.39
18569;BME280;14780;48.316;-1.050;2023-07-31T09:10:22;98755.50;;;23.46;49.50
18569;BME280;14780;48.316;-1.050;2023-07-31T09:13:08;98753.34;;;23.43;49.43
18569;BME280;14780;48.316;-1.050;2023-07-31T09:15:53;98752.78;;;23.46;49.62
18569;BME280;14780;48.316;-1.050;2023-07-31T09:18:56;98753.88;;;23.45;49.28
18569;BME280;14780;48.316;-1.050;2023-07-31T09:21:48;98756.34;;;23.47;49.38
18569;BME280;14780;48.316;-1.050;2023-07-31T09:24:34;98755.53;;;23.42;49.85
18569;BME280;14780;48.316;-1.050;2023-07-31T09:27:19;98762.59;;;23.47;49.60
18569;BME280;14780;48.316;-1.050;2023-07-31T09:30:04;98773.53;;;23.47;49.80
18569;BME280;14780;48.316;-1.050;2023-07-31T09:32:50;98773.00;;;23.45;49.76
18569;BME280;14780;48.316;-1.050;2023-07-31T09:35:35;98785.53;;;23.51;49.55
18569;BME280;14780;48.316;-1.050;2023-07-31T09:38:22;98780.09;;;23.46;49.75
18569;BME280;14780;48.316;-1.050;2023-07-31T09:41:07;98771.09;;;23.46;50.17
18569;BME280;14780;48.316;-1.050;2023-07-31T09:43:56;98776.25;;;23.47;49.82
18569;BME280;14780;48.316;-1.050;2023-07-31T09:46:40;98769.19;;;23.42;50.34
18569;BME280;14780;48.316;-1.050;2023-07-31T09:49:25;98767.00;;;23.48;50.64
18569;BME280;14780;48.316;-1.050;2023-07-31T09:52:12;98760.66;;;23.58;49.72
18569;BME280;14780;48.316;-1.050;2023-07-31T09:54:58;98756.03;;;23.53;50.14
18569;BME280;14780;48.316;-1.050;2023-07-31T09:57:47;98757.13;;;23.52;50.52
18569;BME280;14780;48.316;-1.050;2023-07-31T10:00:33;98758.75;;;23.53;50.77
18569;BME280;14780;48.316;-1.050;2023-07-31T10:03:18;98756.06;;;23.48;50.99
18569;BME280;14780;48.316;-1.050;2023-07-31T10:06:04;98741.84;;;23.51;50.71
18569;BME280;14780;48.316;-1.050;2023-07-31T10:08:51;98736.91;;;23.58;50.26
18569;BME280;14780;48.316;-1.050;2023-07-31T10:11:42;98744.56;;;23.56;50.71
18569;BME280;14780;48.316;-1.050;2023-07-31T10:14:29;98741.84;;;23.56;50.66
18569;BME280;14780;48.316;-1.050;2023-07-31T10:17:14;98744.56;;;23.56;50.89
18569;BME280;14780;48.316;-1.050;2023-07-31T10:20:00;98739.13;;;23.56;50.63
18569;BME280;14780;48.316;-1.050;2023-07-31T10:22:48;98729.53;;;23.59;50.79
18569;BME280;14780;48.316;-1.050;2023-07-31T10:25:33;98722.16;;;23.59;50.73
18569;BME280;14780;48.316;-1.050;2023-07-31T10:28:18;98721.06;;;23.55;51.31
18569;BME280;14780;48.316;-1.050;2023-07-31T10:31:04;98717.53;;;23.60;50.93
18569;BME280;14780;48.316;-1.050;2023-07-31T10:33:50;98720.53;;;23.58;51.18
18569;BME280;14780;48.316;-1.050;2023-07-31T10:36:35;98726.00;;;23.58;51.31
18569;BME280;14780;48.316;-1.050;2023-07-31T10:39:38;98719.44;;;23.59;51.18
18569;BME280;14780;48.316;-1.050;2023-07-31T10:42:38;98700.31;;;23.54;51.71
18569;BME280;14780;48.316;-1.050;2023-07-31T10:45:53;98699.19;;;23.65;51.17
18569;BME280;14780;48.316;-1.050;2023-07-31T10:48:40;98703.03;;;23.64;51.14
18569;BME280;14780;48.316;-1.050;2023-07-31T10:51:33;98707.94;;;23.62;51.33
18569;BME280;14780;48.316;-1.050;2023-07-31T10:54:21;98713.94;;;23.64;51.20
18569;BME280;14780;48.316;-1.050;2023-07-31T10:57:22;98701.66;;;23.62;51.59
18569;BME280;14780;48.316;-1.050;2023-07-31T11:00:27;98702.78;;;23.61;51.61
18569;BME280;14780;48.316;-1.050;2023-07-31T11:03:17;98702.47;;;23.62;51.79
18569;BME280;14780;48.316;-1.050;2023-07-31T11:06:02;98693.75;;;23.60;51.85
18569;BME280;14780;48.316;-1.050;2023-07-31T11:08:49;98689.66;;;23.63;51.59
18569;BME280;14780;48.316;-1.050;2023-07-31T11:11:34;98685.81;;;23.59;51.82
18569;BME280;14780;48.316;-1.050;2023-07-31T11:14:20;98691.00;;;23.60;52.04
18569;BME280;14780;48.316;-1.050;2023-07-31T11:17:08;98686.09;;;23.62;51.93
18569;BME280;14780;48.316;-1.050;2023-07-31T11:19:53;98682.81;;;23.65;51.81
18569;BME280;14780;48.316;-1.050;2023-07-31T11:22:37;98681.19;;;23.64;51.57
18569;BME280;14780;48.316;-1.050;2023-07-31T11:25:23;98687.16;;;23.66;51.84
18569;BME280;14780;48.316;-1.050;2023-07-31T11:28:12;98675.97;;;23.68;51.82
18569;BME280;14780;48.316;-1.050;2023-07-31T11:30:58;98689.66;;;23.63;52.22
18569;BME280;14780;48.316;-1.050;2023-07-31T11:33:42;98690.16;;;23.65;51.96
18569;BME280;14780;48.316;-1.050;2023-07-31T11:36:27;98679.81;;;23.62;52.17
18569;BME280;14780;48.316;-1.050;2023-07-31T11:39:12;98680.06;;;23.70;51.83
18569;BME280;14780;48.316;-1.050;2023-07-31T11:42:00;98676.47;;;23.75;51.64
18569;BME280;14780;48.316;-1.050;2023-07-31T11:44:45;98673.78;;;23.70;52.02
18569;BME280;14780;48.316;-1.050;2023-07-31T11:47:37;98663.69;;;23.70;51.90
18569;BME280;14780;48.316;-1.050;2023-07-31T11:50:23;98655.75;;;23.69;52.07
18569;BME280;14780;48.316;-1.050;2023-07-31T11:53:10;98666.69;;;23.69;52.22
18569;BME280;14780;48.316;-1.050;2023-07-31T11:55:57;98655.50;;;23.65;52.34
18569;BME280;14780;48.316;-1.050;2023-07-31T11:58:44;98664.78;;;23.64;52.81
18569;BME280;14780;48.316;-1.050;2023-07-31T12:01:30;98657.38;;;23.70;52.26
18569;BME280;14780;48.316;-1.050;2023-07-31T12:04:15;98650.53;;;23.72;52.07
18569;BME280;14780;48.316;-1.050;2023-07-31T12:07:03;98639.88;;;23.76;52.11
18569;BME280;14780;48.316;-1.050;2023-07-31T12:09:54;98646.44;;;23.75;51.87
18569;BME280;14780;48.316;-1.050;2023-07-31T12:12:39;98647.81;;;23.67;52.52
18569;BME280;14780;48.316;-1.050;2023-07-31T12:15:30;98631.97;;;23.69;52.52
18569;BME280;14780;48.316;-1.050;2023-07-31T12:18:19;98636.34;;;23.70;52.14
18569;BME280;14780;48.316;-1.050;2023-07-31T12:21:06;98625.97;;;23.67;52.16
18569;BME280;14780;48.316;-1.050;2023-07-31T12:23:52;98628.97;;;23.66;52.67
18569;BME280;14780;48.316;-1.050;2023-07-31T12:26:38;98614.53;;;23.65;52.75
18569;BME280;14780;48.316;-1.050;2023-07-31T12:29:23;98624.03;;;23.73;52.23
18569;BME280;14780;48.316;-1.050;2023-07-31T12:32:21;98599.50;;;23.68;52.49
18569;BME280;14780;48.316;-1.050;2023-07-31T12:35:07;98594.28;;;23.71;52.22
18569;BME280;14780;48.316;-1.050;2023-07-31T12:37:53;98591.56;;;23.66;52.70
18569;BME280;14780;48.316;-1.050;2023-07-31T12:40:41;98587.22;;;23.65;52.83
18569;BME280;14780;48.316;-1.050;2023-07-31T12:43:26;98579.53;;;23.72;52.31
18569;BME280;14780;48.316;-1.050;2023-07-31T12:46:11;98582.84;;;23.64;53.15
18569;BME280;14780;48.316;-1.050;2023-07-31T12:48:56;98571.84;;;23.74;52.66
18569;BME280;14780;48.316;-1.050;2023-07-31T12:51:41;98571.84;;;23.74;52.87
18569;BME280;14780;48.316;-1.050;2023-07-31T12:54:25;98571.31;;;23.77;52.73
18569;BME280;14780;48.316;-1.050;2023-07-31T12:57:10;98565.03;;;23.72;53.19
18569;BME280;14780;48.316;-1.050;2023-07-31T12:59:54;98567.47;;;23.78;52.90
18569;BME280;14780;48.316;-1.050;2023-07-31T13:02:39;98558.19;;;23.74;53.20
18569;BME280;14780;48.316;-1.050;2023-07-31T13:05:24;98551.63;;;23.75;53.27
18569;BME280;14780;48.316;-1.050;2023-07-31T13:08:09;98550.25;;;23.78;53.11
18569;BME280;14780;48.316;-1.050;2023-07-31T13:10:53;98560.91;;;23.79;52.73
18569;BME280;14780;48.316;-1.050;2023-07-31T13:13:38;98549.44;;;23.77;53.76
18569;BME280;14780;48.316;-1.050;2023-07-31T13:16:23;98546.16;;;23.75;53.41
18569;BME280;14780;48.316;-1.050;2023-07-31T13:19:07;98540.69;;;23.75;53.37
18569;BME280;14780;48.316;-1.050;2023-07-31T13:21:52;98528.09;;;23.84;53.32
18569;BME280;14780;48.316;-1.050;2023-07-31T13:24:36;98528.41;;;23.78;53.30
18569;BME280;14780;48.316;-1.050;2023-07-31T13:27:21;98536.84;;;23.86;52.90
18569;BME280;14780;48.316;-1.050;2023-07-31T13:30:07;98524.88;;;23.77;53.55
18569;BME280;14780;48.316;-1.050;2023-07-31T13:32:51;98524.56;;;23.79;53.57
18569;BME280;14780;48.316;-1.050;2023-07-31T13:35:36;98528.13;;;23.79;53.76
18569;BME280;14780;48.316;-1.050;2023-07-31T13:38:20;98529.16;;;23.83;52.99
18569;BME280;14780;48.316;-1.050;2023-07-31T13:41:05;98513.88;;;23.82;53.42
18569;BME280;14780;48.316;-1.050;2023-07-31T13:43:50;98516.06;;;23.85;53.11
18569;BME280;14780;48.316;-1.050;2023-07-31T13:46:34;98517.41;;;23.88;53.23
18569;BME280;14780;48.316;-1.050;2023-07-31T13:49:19;98520.97;;;23.83;53.75
18569;BME280;14780;48.316;-1.050;2023-07-31T13:52:04;98537.94;;;23.80;53.53
18569;BME280;14780;48.316;-1.050;2023-07-31T13:54:49;98548.00;;;23.90;53.26
18569;BME280;14780;48.316;-1.050;2023-07-31T13:57:33;98543.69;;;23.79;53.93
18569;BME280;14780;48.316;-1.050;2023-07-31T14:00:19;98525.09;;;23.86;53.57
18569;BME280;14780;48.316;-1.050;2023-07-31T14:03:03;98539.81;;;23.85;53.81
18569;BME280;14780;48.316;-1.050;2023-07-31T14:05:48;98539.59;;;23.76;54.68
18569;BME280;14780;48.316;-1.050;2023-07-31T14:08:32;98535.19;;;23.85;54.11
18569;BME280;14780;48.316;-1.050;2023-07-31T14:11:17;98527.53;;;23.87;53.53
18569;BME280;14780;48.316;-1.050;2023-07-31T14:14:02;98520.72;;;23.80;54.67
18569;BME280;14780;48.316;-1.050;2023-07-31T14:16:47;98522.63;;;23.84;53.91
18569;BME280;14780;48.316;-1.050;2023-07-31T14:19:31;98501.84;;;23.83;54.14
18569;BME280;14780;48.316;-1.050;2023-07-31T14:22:26;98498.59;;;23.81;54.27
18569;BME280;14780;48.316;-1.050;2023-07-31T14:25:11;98489.28;;;23.87;54.07
18569;BME280;14780;48.316;-1.050;2023-07-31T14:27:56;98503.78;;;23.83;53.72
18569;BME280;14780;48.316;-1.050;2023-07-31T14:30:40;98511.16;;;23.82;54.61
18569;BME280;14780;48.316;-1.050;2023-07-31T14:33:25;98517.44;;;23.83;54.38